sensor_id;sensor_type;location;lat;lon;timestamp;pressure;altitude;pressure_sealevel;temperature;humidity
10720;BME280;5411;58.386;15.560;2023-09-12T00:00:00;99932.56;;;17.42;100.00
10720;BME280;5411;58.386;15.560;2023-09-12T00:02:32;99930.13;;;17.40;100.00
10720;BME280;5411;58.386;15.560;2023-09-12T00:05:02;99924.97;;;17.39;100.00
10720;BME280;5411;58.386;15.560;2023-09-12T00:07:31;99929.56;;;17.38;100.00
10720;BME280;5411;58.386;15.560;2023-09-12T00:09:59;99925.47;;;17.36;100.00
10720;BME280;5411;58.386;15.560;2023-09-12T00:12:27;99931.69;;;17.36;100.00
10720;BME280;5411;58.386;15.560;2023-09-12T00:15:01;99921.44;;;17.38;100.00
10720;BME280;5411;58.386;15.560;2023-09-12T00:17:31;99922.00;;;17.40;100.00
10720;BME280;5411;58.386;15.560;2023-09-12T00:20:00;99926.91;;;17.43;100.00
10720;BME280;5411;58.386;15.560;2023-09-12T00:22:29;99930.13;;;17.45;100.00
10720;BME280;5411;58.386;15.560;2023-09-12T00:24:57;99938.56;;;17.49;100.00
10720;BME280;5411;58.386;15.560;2023-09-12T00:27:26;99933.72;;;17.51;100.00
10720;BME280;5411;58.386;15.560;2023-09-12T00:29:55;99932.06;;;17.50;100.00
10720;BME280;5411;58.386;15.560;2023-09-12T00:32:23;99925.59;;;17.51;100.00
10720;BME280;5411;58.386;15.560;2023-09-12T00:34:54;99921.25;;;17.50;100.00
10720;BME280;5411;58.386;15.560;2023-09-12T00:37:22;99928.81;;;17.48;100.00
10720;BME280;5411;58.386;15.560;2023-09-12T00:39:53;99913.91;;;17.45;100.00
10720;BME280;5411;58.386;15.560;2023-09-12T00:42:25;99927.72;;;17.44;100.00
10720;BME280;5411;58.386;15.560;2023-09-12T00:44:53;99924.19;;;17.43;100.00
10720;BME280;5411;58.386;15.560;2023-09-12T00:47:28;99921.22;;;17.45;100.00
10720;BME280;5411;58.386;15.560;2023-09-12T00:49:58;99917.44;;;17.46;100.00
10720;BME280;5411;58.386;15.560;2023-09-12T00:52:31;99916.59;;;17.45;100.00
10720;BME280;5411;58.386;15.560;2023-09-12T00:55:03;99917.16;;;17.48;100.00
10720;BME280;5411;58.386;15.560;2023-09-12T00:57:33;99909.88;;;17.48;100.00
10720;BME280;5411;58.386;15.560;2023-09-12T01:00:03;99916.09;;;17.49;100.00
10720;BME280;5411;58.386;15.560;2023-09-12T01:02:39;99917.16;;;17.48;100.00
10720;BME280;5411;58.386;15.560;2023-09-12T01:05:09;99912.84;;;17.46;100.00
10720;BME280;5411;58.386;15.560;2023-09-12T01:07:38;99918.50;;;17.45;100.00
10720;BME280;5411;58.386;15.560;2023-09-12T01:10:09;99917.41;;;17.41;100.00
10720;BME280;5411;58.386;15.560;2023-09-12T01:12:38;99913.31;;;17.38;100.00
10720;BME280;5411;58.386;15.560;2023-09-12T01:15:08;99913.53;;;17.32;100.00
10720;BME280;5411;58.386;15.560;2023-09-12T01:17:41;99920.53;;;17.28;100.00
10720;BME280;5411;58.386;15.560;2023-09-12T01:20:16;99923.75;;;17.25;100.00
10720;BME280;5411;58.386;15.560;2023-09-12T01:22:56;99928.09;;;17.26;100.00
10720;BME280;5411;58.386;15.560;2023-09-12T01:28:29;99915.91;;;17.23;100.00
10720;BME280;5411;58.386;15.560;2023-09-12T01:30:58;99919.41;;;17.24;100.00
10720;BME280;5411;58.386;15.560;2023-09-12T01:33:29;99922.13;;;17.24;100.00
10720;BME280;5411;58.386;15.560;2023-09-12T01:36:04;99923.75;;;17.25;100.00
10720;BME280;5411;58.386;15.560;2023-09-12T01:38:33;99922.13;;;17.24;100.00
10720;BME280;5411;58.386;15.560;2023-09-12T01:41:01;99925.66;;;17.24;100.00
10720;BME280;5411;58.386;15.560;2023-09-12T01:43:32;99923.19;;;17.23;100.00
10720;BME280;5411;58.386;15.560;2023-09-12T01:46:06;99912.06;;;17.19;100.00
10720;BME280;5411;58.386;15.560;2023-09-12T01:48:36;99918.53;;;17.18;100.00
10720;BME280;5411;58.386;15.560;2023-09-12T01:51:06;99921.25;;;17.18;100.00
10720;BME280;5411;58.386;15.560;2023-09-12T01:53:36;99911.00;;;17.20;100.00
10720;BME280;5411;58.386;15.560;2023-09-12T01:56:04;99908.03;;;17.22;100.00
10720;BME280;5411;58.386;15.560;2023-09-12T01:58:37;99909.41;;;17.24;100.00
10720;BME280;5411;58.386;15.560;2023-09-12T02:01:06;99914.56;;;17.26;100.00
10720;BME280;5411;58.386;15.560;2023-09-12T02:03:35;99911.38;;;17.29;100.00
10720;BME280;5411;58.386;15.560;2023-09-12T02:06:03;99909.22;;;17.31;100.00
10720;BME280;5411;58.386;15.560;2023-09-12T02:08:32;99908.13;;;17.32;100.00
10720;BME280;5411;58.386;15.560;2023-09-12T02:11:00;99901.38;;;17.34;100.00
10720;BME280;5411;58.386;15.560;2023-09-12T02:13:28;99903.56;;;17.37;100.00
10720;BME280;5411;58.386;15.560;2023-09-12T02:16:02;99902.50;;;17.38;100.00
10720;BME280;5411;58.386;15.560;2023-09-12T02:18:31;99909.28;;;17.41;100.00
10720;BME280;5411;58.386;15.560;2023-09-12T02:20:59;99903.91;;;17.46;100.00
10720;BME280;5411;58.386;15.560;2023-09-12T02:23:29;99902.31;;;17.50;100.00
10720;BME280;5411;58.386;15.560;2023-09-12T02:25:58;99906.97;;;17.55;100.00
10720;BME280;5411;58.386;15.560;2023-09-12T02:28:27;99908.63;;;17.61;100.00
10720;BME280;5411;58.386;15.560;2023-09-12T02:30:55;99910.84;;;17.64;100.00
10720;BME280;5411;58.386;15.560;2023-09-12T02:33:25;99904.66;;;17.68;100.00
10720;BME280;5411;58.386;15.560;2023-09-12T02:35:53;99900.06;;;17.69;100.00
10720;BME280;5411;58.386;15.560;2023-09-12T02:38:21;99905.75;;;17.72;100.00
10720;BME280;5411;58.386;15.560;2023-09-12T02:40:50;99898.75;;;17.76;100.00
10720;BME280;5411;58.386;15.560;2023-09-12T02:43:19;99900.69;;;17.81;100.00
10720;BME280;5411;58.386;15.560;2023-09-12T02:45:47;99908.00;;;17.86;100.00
10720;BME280;5411;58.386;15.560;2023-09-12T02:48:16;99903.44;;;17.91;100.00
10720;BME280;5411;58.386;15.560;2023-09-12T02:50:46;99902.66;;;17.96;100.00
10720;BME280;5411;58.386;15.560;2023-09-12T02:53:14;99895.63;;;18.00;100.00
10720;BME280;5411;58.386;15.560;2023-09-12T02:55:45;99897.00;;;18.02;100.00
10720;BME280;5411;58.386;15.560;2023-09-12T02:58:13;99898.88;;;18.02;100.00
10720;BME280;5411;58.386;15.560;2023-09-12T03:00:42;99902.97;;;18.04;100.00
10720;BME280;5411;58.386;15.560;2023-09-12T03:03:10;99909.19;;;18.05;100.00
10720;BME280;5411;58.386;15.560;2023-09-12T03:05:45;99902.97;;;18.04;100.00
10720;BME280;5411;58.386;15.560;2023-09-12T03:08:14;99905.94;;;18.03;100.00
10720;BME280;5411;58.386;15.560;2023-09-12T03:10:42;99901.59;;;18.02;100.00
10720;BME280;5411;58.386;15.560;2023-09-12T03:13:11;99901.28;;;17.98;100.00
10720;BME280;5411;58.386;15.560;2023-09-12T03:15:40;99900.47;;;17.98;100.00
10720;BME280;5411;58.386;15.560;2023-09-12T03:18:09;99889.38;;;17.94;100.00
10720;BME280;5411;58.386;15.560;2023-09-12T03:20:38;99899.66;;;17.92;100.00
10720;BME280;5411;58.386;15.560;2023-09-12T03:23:08;99904.81;;;17.94;100.00
10720;BME280;5411;58.386;15.560;2023-09-12T03:25:36;99907.50;;;17.94;100.00
10720;BME280;5411;58.386;15.560;2023-09-12T03:28:06;99896.94;;;17.92;100.00
10720;BME280;5411;58.386;15.560;2023-09-12T03:30:34;99903.16;;;17.93;100.00
10720;BME280;5411;58.386;15.560;2023-09-12T03:33:05;99901.28;;;17.93;100.00
10720;BME280;5411;58.386;15.560;2023-09-12T03:35:34;99898.06;;;17.96;100.00
10720;BME280;5411;58.386;15.560;2023-09-12T03:38:03;99903.19;;;17.98;100.00
10720;BME280;5411;58.386;15.560;2023-09-12T03:40:33;99894.81;;;17.99;100.00
10720;BME280;5411;58.386;15.560;2023-09-12T03:43:01;99891.84;;;18.01;100.00
10720;BME280;5411;58.386;15.560;2023-09-12T03:45:30;99893.47;;;18.02;100.00
10720;BME280;5411;58.386;15.560;2023-09-12T03:47:58;99890.19;;;18.00;100.00
10720;BME280;5411;58.386;15.560;2023-09-12T03:50:26;99890.75;;;17.97;100.00
10720;BME280;5411;58.386;15.560;2023-09-12T03:52:55;99892.91;;;17.95;100.00
10720;BME280;5411;58.386;15.560;2023-09-12T03:55:23;99880.44;;;17.94;100.00
10720;BME280;5411;58.386;15.560;2023-09-12T03:57:53;99897.19;;;17.91;100.00
10720;BME280;5411;58.386;15.560;2023-09-12T04:00:21;99889.59;;;17.88;100.00
10720;BME280;5411;58.386;15.560;2023-09-12T04:02:49;99880.91;;;17.86;100.00
10720;BME280;5411;58.386;15.560;2023-09-12T04:05:18;99886.06;;;17.87;100.00
10720;BME280;5411;58.386;15.560;2023-09-12T04:07:46;99889.03;;;17.86;100.00
10720;BME280;5411;58.386;15.560;2023-09-12T04:10:14;99886.34;;;17.86;100.00
10720;BME280;5411;58.386;15.560;2023-09-12T04:12:47;99895.28;;;17.86;100.00
10720;BME280;5411;58.386;15.560;2023-09-12T04:15:17;99890.13;;;17.85;100.00
10720;BME280;5411;58.386;15.560;2023-09-12T04:17:45;99886.63;;;17.84;100.00
10720;BME280;5411;58.386;15.560;2023-09-12T04:20:14;99888.22;;;17.85;100.00
10720;BME280;5411;58.386;15.560;2023-09-12T04:22:42;99883.38;;;17.87;100.00
10720;BME280;5411;58.386;15.560;2023-09-12T04:25:11;99875.81;;;17.89;100.00
10720;BME280;5411;58.386;15.560;2023-09-12T04:27:41;99887.19;;;17.91;100.00
10720;BME280;5411;58.386;15.560;2023-09-12T04:30:10;99877.72;;;17.94;100.00
10720;BME280;5411;58.386;15.560;2023-09-12T04:32:40;99885.59;;;17.95;100.00
10720;BME280;5411;58.386;15.560;2023-09-12T04:35:08;99873.41;;;17.98;100.00
10720;BME280;5411;58.386;15.560;2023-09-12T04:37:36;99878.84;;;18.03;100.00
10720;BME280;5411;58.386;15.560;2023-09-12T04:40:07;99878.06;;;18.07;100.00
10720;BME280;5411;58.386;15.560;2023-09-12T04:42:36;99872.91;;;18.11;100.00
10720;BME280;5411;58.386;15.560;2023-09-12T04:45:05;99869.69;;;18.14;100.00
10720;BME280;5411;58.386;15.560;2023-09-12T04:47:34;99874.84;;;18.15;100.00
10720;BME280;5411;58.386;15.560;2023-09-12T04:50:06;99871.88;;;18.17;100.00
10720;BME280;5411;58.386;15.560;2023-09-12T04:52:34;99875.13;;;18.19;100.00
10720;BME280;5411;58.386;15.560;2023-09-12T04:55:03;99872.72;;;18.23;100.00
10720;BME280;5411;58.386;15.560;2023-09-12T04:57:32;99871.91;;;18.22;100.00
10720;BME280;5411;58.386;15.560;2023-09-12T05:00:00;99876.25;;;18.23;100.00
10720;BME280;5411;58.386;15.560;2023-09-12T05:02:28;99879.22;;;18.22;100.00
10720;BME280;5411;58.386;15.560;2023-09-12T05:04:57;99873.00;;;18.21;100.00
10720;BME280;5411;58.386;15.560;2023-09-12T05:07:27;99878.97;;;18.23;100.00
10720;BME280;5411;58.386;15.560;2023-09-12T05:09:55;99876.25;;;18.23;100.00
10720;BME280;5411;58.386;15.560;2023-09-12T05:12:23;99872.47;;;18.24;100.00
10720;BME280;5411;58.386;15.560;2023-09-12T05:14:52;99873.00;;;18.26;100.00
10720;BME280;5411;58.386;15.560;2023-09-12T05:17:20;99878.44;;;18.31;100.00
10720;BME280;5411;58.386;15.560;2023-09-12T05:19:49;99879.53;;;18.35;100.00
10720;BME280;5411;58.386;15.560;2023-09-12T05:22:17;99877.66;;;18.41;100.00
10720;BME280;5411;58.386;15.560;2023-09-12T05:24:47;99891.22;;;18.46;100.00
10720;BME280;5411;58.386;15.560;2023-09-12T05:27:16;99896.94;;;18.49;100.00
10720;BME280;5411;58.386;15.560;2023-09-12T05:29:45;99891.25;;;18.56;100.00
10720;BME280;5411;58.386;15.560;2023-09-12T05:32:13;99888.03;;;18.59;100.00
10720;BME280;5411;58.386;15.560;2023-09-12T05:34:42;99897.78;;;18.65;100.00
10720;BME280;5411;58.386;15.560;2023-09-12T05:37:12;99894.84;;;18.72;100.00
10720;BME280;5411;58.386;15.560;2023-09-12T05:39:40;99886.19;;;18.75;100.00
10720;BME280;5411;58.386;15.560;2023-09-12T05:42:10;99885.34;;;18.79;100.00
10720;BME280;5411;58.386;15.560;2023-09-12T05:44:39;99890.25;;;18.82;100.00
10720;BME280;5411;58.386;15.560;2023-09-12T05:47:07;99897.31;;;18.83;100.00
10720;BME280;5411;58.386;15.560;2023-09-12T05:49:35;99897.59;;;18.87;100.00
10720;BME280;5411;58.386;15.560;2023-09-12T05:52:04;99898.41;;;18.88;100.00
10720;BME280;5411;58.386;15.560;2023-09-12T05:54:32;99896.25;;;18.90;100.00
10720;BME280;5411;58.386;15.560;2023-09-12T05:57:01;99898.13;;;18.94;100.00
10720;BME280;5411;58.386;15.560;2023-09-12T05:59:32;99906.56;;;19.03;100.00
10720;BME280;5411;58.386;15.560;2023-09-12T06:02:00;99904.94;;;19.12;100.00
10720;BME280;5411;58.386;15.560;2023-09-12T06:04:29;99905.75;;;19.17;100.00
10720;BME280;5411;58.386;15.560;2023-09-12T06:06:58;99900.88;;;19.25;100.00
10720;BME280;5411;58.386;15.560;2023-09-12T06:09:26;99907.66;;;19.27;100.00
10720;BME280;5411;58.386;15.560;2023-09-12T06:11:54;99902.50;;;19.31;100.00
10720;BME280;5411;58.386;15.560;2023-09-12T06:14:23;99907.66;;;19.32;100.00
10720;BME280;5411;58.386;15.560;2023-09-12T06:16:53;99899.50;;;19.32;100.00
10720;BME280;5411;58.386;15.560;2023-09-12T06:19:21;99907.38;;;19.34;100.00
10720;BME280;5411;58.386;15.560;2023-09-12T06:21:49;99902.22;;;19.37;100.00
10720;BME280;5411;58.386;15.560;2023-09-12T06:24:20;99902.50;;;19.41;100.00
10720;BME280;5411;58.386;15.560;2023-09-12T06:26:48;99891.34;;;19.47;100.00
10720;BME280;5411;58.386;15.560;2023-09-12T06:29:19;99895.19;;;19.56;100.00
10720;BME280;5411;58.386;15.560;2023-09-12T06:31:47;99905.75;;;19.63;100.00
10720;BME280;5411;58.386;15.560;2023-09-12T06:34:17;99903.59;;;19.70;100.00
10720;BME280;5411;58.386;15.560;2023-09-12T06:36:45;99901.41;;;19.77;100.00
10720;BME280;5411;58.386;15.560;2023-09-12T06:39:15;99895.94;;;19.87;100.00
10720;BME280;5411;58.386;15.560;2023-09-12T06:41:43;99900.00;;;19.95;100.00
10720;BME280;5411;58.386;15.560;2023-09-12T06:44:13;99900.25;;;20.04;100.00
10720;BME280;5411;58.386;15.560;2023-09-12T06:46:41;99893.41;;;20.11;100.00
10720;BME280;5411;58.386;15.560;2023-09-12T06:49:09;99891.78;;;20.20;100.00
10720;BME280;5411;58.386;15.560;2023-09-12T06:51:39;99897.16;;;20.25;100.00
10720;BME280;5411;58.386;15.560;2023-09-12T06:54:08;99902.03;;;20.34;100.00
10720;BME280;5411;58.386;15.560;2023-09-12T06:56:36;99907.47;;;20.44;100.00
10720;BME280;5411;58.386;15.560;2023-09-12T06:59:05;99896.81;;;20.52;100.00
10720;BME280;5411;58.386;15.560;2023-09-12T07:01:33;99903.59;;;20.60;100.00
10720;BME280;5411;58.386;15.560;2023-09-12T07:04:02;99894.28;;;20.66;100.00
10720;BME280;5411;58.386;15.560;2023-09-12T07:06:31;99898.63;;;20.72;100.00
10720;BME280;5411;58.386;15.560;2023-09-12T07:09:01;99899.44;;;20.73;100.00
10720;BME280;5411;58.386;15.560;2023-09-12T07:11:34;99911.94;;;20.74;100.00
10720;BME280;5411;58.386;15.560;2023-09-12T07:14:02;99920.59;;;20.81;100.00
10720;BME280;5411;58.386;15.560;2023-09-12T07:16:31;99911.25;;;20.92;100.00
10720;BME280;5411;58.386;15.560;2023-09-12T07:18:59;99900.56;;;21.06;100.00
10720;BME280;5411;58.386;15.560;2023-09-12T07:21:28;99907.25;;;21.18;100.00
10720;BME280;5411;58.386;15.560;2023-09-12T07:23:56;99907.78;;;21.30;100.00
10720;BME280;5411;58.386;15.560;2023-09-12T07:26:26;99890.81;;;21.39;100.00
10720;BME280;5411;58.386;15.560;2023-09-12T07:28:55;99890.19;;;21.47;100.00
10720;BME280;5411;58.386;15.560;2023-09-12T07:31:23;99893.41;;;21.54;100.00
10720;BME280;5411;58.386;15.560;2023-09-12T07:33:52;99882.97;;;21.61;100.00
10720;BME280;5411;58.386;15.560;2023-09-12T07:36:20;99894.94;;;21.65;100.00
10720;BME280;5411;58.386;15.560;2023-09-12T07:38:49;99899.72;;;21.73;100.00
10720;BME280;5411;58.386;15.560;2023-09-12T07:41:18;99897.50;;;21.80;100.00
10720;BME280;5411;58.386;15.560;2023-09-12T07:43:47;99905.91;;;21.84;100.00
10720;BME280;5411;58.386;15.560;2023-09-12T07:46:16;99899.28;;;21.90;100.00
10720;BME280;5411;58.386;15.560;2023-09-12T07:48:44;99904.78;;;21.85;100.00
10720;BME280;5411;58.386;15.560;2023-09-12T07:51:13;99894.69;;;21.85;100.00
10720;BME280;5411;58.386;15.560;2023-09-12T07:53:44;99899.00;;;21.91;100.00
10720;BME280;5411;58.386;15.560;2023-09-12T07:56:13;99902.66;;;21.82;100.00
10720;BME280;5411;58.386;15.560;2023-09-12T07:58:43;99896.72;;;21.75;100.00
10720;BME280;5411;58.386;15.560;2023-09-12T08:01:13;99905.47;;;21.72;100.00
10720;BME280;5411;58.386;15.560;2023-09-12T08:03:42;99909.81;;;21.73;100.00
10720;BME280;5411;58.386;15.560;2023-09-12T08:06:14;99906.53;;;21.76;100.00
10720;BME280;5411;58.386;15.560;2023-09-12T08:08:42;99904.84;;;21.80;100.00
10720;BME280;5411;58.386;15.560;2023-09-12T08:11:12;99903.41;;;21.87;100.00
10720;BME280;5411;58.386;15.560;2023-09-12T08:13:40;99903.03;;;21.99;100.00
10720;BME280;5411;58.386;15.560;2023-09-12T08:16:09;99916.84;;;22.08;100.00
10720;BME280;5411;58.386;15.560;2023-09-12T08:18:38;99922.84;;;22.10;100.00
10720;BME280;5411;58.386;15.560;2023-09-12T08:21:06;99935.31;;;22.11;100.00
10720;BME280;5411;58.386;15.560;2023-09-12T08:23:35;99930.94;;;22.15;100.00
10720;BME280;5411;58.386;15.560;2023-09-12T08:26:04;99919.97;;;22.20;100.00
10720;BME280;5411;58.386;15.560;2023-09-12T08:28:35;99931.13;;;22.23;100.00
10720;BME280;5411;58.386;15.560;2023-09-12T08:31:04;99932.28;;;22.17;100.00
10720;BME280;5411;58.386;15.560;2023-09-12T08:33:32;99934.53;;;22.10;100.00
10720;BME280;5411;58.386;15.560;2023-09-12T08:36:03;99927.16;;;22.11;100.00
10720;BME280;5411;58.386;15.560;2023-09-12T08:38:33;99929.84;;;22.16;100.00
10720;BME280;5411;58.386;15.560;2023-09-12T08:41:02;99926.78;;;22.22;100.00
10720;BME280;5411;58.386;15.560;2023-09-12T08:43:31;99923.84;;;22.37;100.00
10720;BME280;5411;58.386;15.560;2023-09-12T08:45:59;99923.94;;;22.51;100.00
10720;BME280;5411;58.386;15.560;2023-09-12T08:48:28;99920.19;;;22.66;100.00
10720;BME280;5411;58.386;15.560;2023-09-12T08:50:59;99920.84;;;22.82;100.00
10720;BME280;5411;58.386;15.560;2023-09-12T08:53:31;99924.16;;;22.97;100.00
10720;BME280;5411;58.386;15.560;2023-09-12T08:56:01;99924.88;;;23.22;100.00
10720;BME280;5411;58.386;15.560;2023-09-12T08:58:31;99923.81;;;23.36;100.00
10720;BME280;5411;58.386;15.560;2023-09-12T09:01:00;99917.66;;;23.44;100.00
10720;BME280;5411;58.386;15.560;2023-09-12T09:03:30;99913.03;;;23.45;100.00
10720;BME280;5411;58.386;15.560;2023-09-12T09:06:01;99905.81;;;23.35;100.00
10720;BME280;5411;58.386;15.560;2023-09-12T09:08:33;99910.63;;;23.25;100.00
10720;BME280;5411;58.386;15.560;2023-09-12T09:11:01;99906.66;;;23.17;100.00
10720;BME280;5411;58.386;15.560;2023-09-12T09:13:32;99906.81;;;23.07;100.00
10720;BME280;5411;58.386;15.560;2023-09-12T09:16:10;99908.16;;;22.91;100.00
10720;BME280;5411;58.386;15.560;2023-09-12T09:19:01;99899.09;;;22.77;100.00
10720;BME280;5411;58.386;15.560;2023-09-12T09:21:32;99901.63;;;22.68;100.00
10720;BME280;5411;58.386;15.560;2023-09-12T09:24:04;99905.75;;;22.65;100.00
10720;BME280;5411;58.386;15.560;2023-09-12T09:26:42;99912.03;;;22.66;100.00
10720;BME280;5411;58.386;15.560;2023-09-12T09:29:13;99916.03;;;22.92;100.00
10720;BME280;5411;58.386;15.560;2023-09-12T09:31:43;99917.03;;;23.01;100.00
10720;BME280;5411;58.386;15.560;2023-09-12T09:34:13;99915.47;;;23.14;100.00
10720;BME280;5411;58.386;15.560;2023-09-12T09:36:44;99910.34;;;23.26;100.00
10720;BME280;5411;58.386;15.560;2023-09-12T09:39:14;99919.19;;;23.37;100.00
10720;BME280;5411;58.386;15.560;2023-09-12T09:41:47;99913.94;;;23.40;100.00
10720;BME280;5411;58.386;15.560;2023-09-12T09:44:16;99916.28;;;23.47;100.00
10720;BME280;5411;58.386;15.560;2023-09-12T09:46:50;99914.66;;;23.46;100.00
10720;BME280;5411;58.386;15.560;2023-09-12T09:49:20;99915.56;;;23.41;100.00
10720;BME280;5411;58.386;15.560;2023-09-12T09:51:49;99906.56;;;23.41;100.00
10720;BME280;5411;58.386;15.560;2023-09-12T09:54:24;99909.81;;;23.43;100.00
10720;BME280;5411;58.386;15.560;2023-09-12T09:56:54;99911.88;;;23.51;100.00
10720;BME280;5411;58.386;15.560;2023-09-12T09:59:24;99918.16;;;23.52;99.92
10720;BME280;5411;58.386;15.560;2023-09-12T10:01:55;99914.66;;;23.46;100.00
10720;BME280;5411;58.386;15.560;2023-09-12T10:04:26;99919.00;;;23.47;100.00
10720;BME280;5411;58.386;15.560;2023-09-12T10:06:57;99915.63;;;23.55;98.92
10720;BME280;5411;58.386;15.560;2023-09-12T10:09:27;99912.13;;;23.50;100.00
10720;BME280;5411;58.386;15.560;2023-09-12T10:11:57;99919.50;;;23.49;100.00
10720;BME280;5411;58.386;15.560;2023-09-12T10:14:29;99920.63;;;23.48;98.81
10720;BME280;5411;58.386;15.560;2023-09-12T10:17:01;99924.56;;;23.42;100.00
10720;BME280;5411;58.386;15.560;2023-09-12T10:19:38;99922.13;;;23.40;99.70
10720;BME280;5411;58.386;15.560;2023-09-12T10:22:12;99919.50;;;23.49;99.84
10720;BME280;5411;58.386;15.560;2023-09-12T10:24:49;99919.25;;;23.51;98.64
10720;BME280;5411;58.386;15.560;2023-09-12T10:27:19;99915.25;;;23.43;98.78
10720;BME280;5411;58.386;15.560;2023-09-12T10:29:50;99907.06;;;23.43;98.97
10720;BME280;5411;58.386;15.560;2023-09-12T10:32:24;99910.22;;;23.50;94.98
10720;BME280;5411;58.386;15.560;2023-09-12T10:34:57;99903.53;;;23.42;93.93
10720;BME280;5411;58.386;15.560;2023-09-12T10:37:27;99911.19;;;23.40;95.50
10720;BME280;5411;58.386;15.560;2023-09-12T10:39:59;99901.81;;;23.46;94.24
10720;BME280;5411;58.386;15.560;2023-09-12T10:42:30;99897.63;;;23.54;93.11
10720;BME280;5411;58.386;15.560;2023-09-12T10:45:01;99890.63;;;23.62;92.51
10720;BME280;5411;58.386;15.560;2023-09-12T10:47:30;99893.19;;;23.72;89.92
10720;BME280;5411;58.386;15.560;2023-09-12T10:49:59;99890.59;;;23.80;89.07
10720;BME280;5411;58.386;15.560;2023-09-12T10:52:32;99894.22;;;23.76;87.40
10720;BME280;5411;58.386;15.560;2023-09-12T10:55:06;99894.22;;;23.76;86.42
10720;BME280;5411;58.386;15.560;2023-09-12T10:57:34;99885.41;;;23.79;86.81
10720;BME280;5411;58.386;15.560;2023-09-12T11:00:13;99889.06;;;23.88;85.79
10720;BME280;5411;58.386;15.560;2023-09-12T11:02:42;99890.31;;;24.09;86.23
10720;BME280;5411;58.386;15.560;2023-09-12T11:05:37;99894.53;;;24.43;84.25
10720;BME280;5411;58.386;15.560;2023-09-12T11:08:05;99889.63;;;24.67;83.85
10720;BME280;5411;58.386;15.560;2023-09-12T11:10:35;99891.66;;;24.75;80.72
10720;BME280;5411;58.386;15.560;2023-09-12T11:13:17;99894.75;;;24.82;79.22
10720;BME280;5411;58.386;15.560;2023-09-12T11:19:12;99889.47;;;25.00;80.67
10720;BME280;5411;58.386;15.560;2023-09-12T11:21:40;99887.25;;;25.02;80.71
10720;BME280;5411;58.386;15.560;2023-09-12T11:24:10;99890.34;;;25.09;80.47
10720;BME280;5411;58.386;15.560;2023-09-12T11:26:59;99892.28;;;25.08;80.38
10720;BME280;5411;58.386;15.560;2023-09-12T11:29:29;99896.13;;;25.07;79.44
10720;BME280;5411;58.386;15.560;2023-09-12T11:31:59;99897.69;;;25.00;78.98
10720;BME280;5411;58.386;15.560;2023-09-12T11:34:36;99894.81;;;24.91;79.00
10720;BME280;5411;58.386;15.560;2023-09-12T11:37:05;99899.84;;;24.89;79.58
10720;BME280;5411;58.386;15.560;2023-09-12T11:39:35;99906.41;;;24.88;80.17
10720;BME280;5411;58.386;15.560;2023-09-12T11:42:07;99906.13;;;24.90;79.85
10720;BME280;5411;58.386;15.560;2023-09-12T11:44:40;99911.19;;;24.82;80.19
10720;BME280;5411;58.386;15.560;2023-09-12T11:47:11;99914.72;;;24.83;80.24
10720;BME280;5411;58.386;15.560;2023-09-12T11:49:41;99921.63;;;24.80;81.82
10720;BME280;5411;58.386;15.560;2023-09-12T11:52:10;99920.66;;;24.76;81.52
10720;BME280;5411;58.386;15.560;2023-09-12T11:54:40;99924.41;;;24.67;80.74
10720;BME280;5411;58.386;15.560;2023-09-12T11:57:12;99927.66;;;24.55;81.81
10720;BME280;5411;58.386;15.560;2023-09-12T11:59:43;99925.84;;;24.50;82.55
10720;BME280;5411;58.386;15.560;2023-09-12T12:02:12;99928.69;;;24.45;83.75
10720;BME280;5411;58.386;15.560;2023-09-12T12:04:41;99927.78;;;24.36;84.00
10720;BME280;5411;58.386;15.560;2023-09-12T12:07:10;99927.78;;;24.36;83.92
10720;BME280;5411;58.386;15.560;2023-09-12T12:09:39;99922.50;;;24.40;84.64
10720;BME280;5411;58.386;15.560;2023-09-12T12:12:13;99921.69;;;24.39;82.96
10720;BME280;5411;58.386;15.560;2023-09-12T12:14:42;99918.66;;;24.41;83.87
10720;BME280;5411;58.386;15.560;2023-09-12T12:17:12;99925.25;;;24.40;83.60
10720;BME280;5411;58.386;15.560;2023-09-12T12:19:45;99931.66;;;24.35;84.42
10720;BME280;5411;58.386;15.560;2023-09-12T12:22:14;99927.56;;;24.19;84.54
10720;BME280;5411;58.386;15.560;2023-09-12T12:24:46;99938.78;;;24.04;85.70
10720;BME280;5411;58.386;15.560;2023-09-12T12:27:17;99935.22;;;23.90;86.83
10720;BME280;5411;58.386;15.560;2023-09-12T12:29:45;99944.00;;;23.87;88.36
10720;BME280;5411;58.386;15.560;2023-09-12T12:32:19;99934.97;;;23.72;89.02
10720;BME280;5411;58.386;15.560;2023-09-12T12:34:48;99924.81;;;23.59;89.33
10720;BME280;5411;58.386;15.560;2023-09-12T12:37:37;99920.88;;;23.52;90.79
10720;BME280;5411;58.386;15.560;2023-09-12T12:40:09;99921.44;;;23.49;91.73
10720;BME280;5411;58.386;15.560;2023-09-12T12:42:42;99932.47;;;23.43;92.59
10720;BME280;5411;58.386;15.560;2023-09-12T12:45:21;99924.75;;;23.45;92.76
10720;BME280;5411;58.386;15.560;2023-09-12T12:47:51;99919.00;;;23.47;93.45
10720;BME280;5411;58.386;15.560;2023-09-12T12:50:20;99922.50;;;23.53;95.13
10720;BME280;5411;58.386;15.560;2023-09-12T12:52:49;99924.63;;;23.56;93.51
10720;BME280;5411;58.386;15.560;2023-09-12T12:55:31;99914.72;;;23.60;95.52
10720;BME280;5411;58.386;15.560;2023-09-12T12:58:03;99910.78;;;23.66;96.80
10720;BME280;5411;58.386;15.560;2023-09-12T13:00:32;99906.22;;;23.61;93.11
10720;BME280;5411;58.386;15.560;2023-09-12T13:03:01;99900.25;;;23.59;93.75
10720;BME280;5411;58.386;15.560;2023-09-12T13:05:32;99899.44;;;23.59;93.00
10720;BME280;5411;58.386;15.560;2023-09-12T13:08:02;99908.03;;;23.52;93.46
10720;BME280;5411;58.386;15.560;2023-09-12T13:10:30;99905.72;;;23.59;94.70
10720;BME280;5411;58.386;15.560;2023-09-12T13:12:59;99905.72;;;23.59;93.34